sensor_id;sensor_type;location;lat;lon;timestamp;P1;durP1;ratioP1;P2;durP2;ratioP2
1837;SDS011;918;50.796;6.772;2023-04-24T00:01:42;1.30;;;1.20;;
1837;SDS011;918;50.796;6.772;2023-04-24T00:04:07;1.77;;;1.30;;
1837;SDS011;918;50.796;6.772;2023-04-24T00:06:35;1.10;;;1.10;;
1837;SDS011;918;50.796;6.772;2023-04-24T00:09:07;1.40;;;1.30;;
1837;SDS011;918;50.796;6.772;2023-04-24T00:11:34;3.10;;;1.70;;
1837;SDS011;918;50.796;6.772;2023-04-24T00:14:00;1.10;;;1.10;;
1837;SDS011;918;50.796;6.772;2023-04-24T00:16:25;1.83;;;1.27;;
1837;SDS011;918;50.796;6.772;2023-04-24T00:18:51;1.30;;;1.20;;
1837;SDS011;918;50.796;6.772;2023-04-24T00:21:17;1.53;;;1.43;;
1837;SDS011;918;50.796;6.772;2023-04-24T00:23:43;1.00;;;1.00;;
1837;SDS011;918;50.796;6.772;2023-04-24T00:26:08;1.40;;;1.30;;
1837;SDS011;918;50.796;6.772;2023-04-24T00:28:34;1.73;;;1.30;;
1837;SDS011;918;50.796;6.772;2023-04-24T00:30:59;1.83;;;1.53;;
1837;SDS011;918;50.796;6.772;2023-04-24T00:33:24;1.37;;;1.27;;
1837;SDS011;918;50.796;6.772;2023-04-24T00:35:49;1.63;;;1.53;;
1837;SDS011;918;50.796;6.772;2023-04-24T00:38:15;1.60;;;1.50;;
1837;SDS011;918;50.796;6.772;2023-04-24T00:40:40;2.13;;;1.30;;
1837;SDS011;918;50.796;6.772;2023-04-24T00:43:05;1.50;;;1.33;;
1837;SDS011;918;50.796;6.772;2023-04-24T00:45:30;1.50;;;1.40;;
1837;SDS011;918;50.796;6.772;2023-04-24T00:47:56;1.27;;;1.17;;
1837;SDS011;918;50.796;6.772;2023-04-24T00:50:21;1.60;;;1.50;;
1837;SDS011;918;50.796;6.772;2023-04-24T00:52:46;1.73;;;1.50;;
1837;SDS011;918;50.796;6.772;2023-04-24T00:55:12;1.50;;;1.40;;
1837;SDS011;918;50.796;6.772;2023-04-24T00:57:37;1.93;;;1.50;;
1837;SDS011;918;50.796;6.772;2023-04-24T01:00:03;2.20;;;1.70;;
1837;SDS011;918;50.796;6.772;2023-04-24T01:02:30;1.87;;;1.23;;
1837;SDS011;918;50.796;6.772;2023-04-24T01:04:59;2.07;;;1.90;;
1837;SDS011;918;50.796;6.772;2023-04-24T01:07:24;1.80;;;1.70;;
1837;SDS011;918;50.796;6.772;2023-04-24T01:09:50;2.20;;;2.00;;
1837;SDS011;918;50.796;6.772;2023-04-24T01:12:17;1.93;;;1.83;;
1837;SDS011;918;50.796;6.772;2023-04-24T01:14:42;1.90;;;1.80;;
1837;SDS011;918;50.796;6.772;2023-04-24T01:17:07;2.43;;;2.23;;
1837;SDS011;918;50.796;6.772;2023-04-24T01:19:34;1.80;;;1.70;;
1837;SDS011;918;50.796;6.772;2023-04-24T01:21:59;2.90;;;2.70;;
1837;SDS011;918;50.796;6.772;2023-04-24T01:24:27;3.67;;;3.37;;
1837;SDS011;918;50.796;6.772;2023-04-24T01:26:53;3.90;;;3.60;;
1837;SDS011;918;50.796;6.772;2023-04-24T01:29:18;3.80;;;3.43;;
1837;SDS011;918;50.796;6.772;2023-04-24T01:31:44;3.40;;;3.10;;
1837;SDS011;918;50.796;6.772;2023-04-24T01:34:09;3.77;;;3.47;;
1837;SDS011;918;50.796;6.772;2023-04-24T01:36:35;3.50;;;3.20;;
1837;SDS011;918;50.796;6.772;2023-04-24T01:39:01;3.10;;;2.90;;
1837;SDS011;918;50.796;6.772;2023-04-24T01:41:26;3.40;;;3.10;;
1837;SDS011;918;50.796;6.772;2023-04-24T01:43:52;2.87;;;2.70;;
1837;SDS011;918;50.796;6.772;2023-04-24T01:46:18;3.53;;;3.23;;
1837;SDS011;918;50.796;6.772;2023-04-24T01:48:44;3.10;;;2.90;;
1837;SDS011;918;50.796;6.772;2023-04-24T01:51:10;3.70;;;3.27;;
1837;SDS011;918;50.796;6.772;2023-04-24T01:53:35;3.33;;;3.03;;
1837;SDS011;918;50.796;6.772;2023-04-24T01:56:00;4.47;;;4.07;;
1837;SDS011;918;50.796;6.772;2023-04-24T01:58:26;3.57;;;3.27;;
1837;SDS011;918;50.796;6.772;2023-04-24T02:00:52;4.50;;;4.10;;
1837;SDS011;918;50.796;6.772;2023-04-24T02:03:17;3.73;;;3.53;;
1837;SDS011;918;50.796;6.772;2023-04-24T02:05:43;4.50;;;4.10;;
1837;SDS011;918;50.796;6.772;2023-04-24T02:08:10;3.83;;;3.53;;
1837;SDS011;918;50.796;6.772;2023-04-24T02:10:35;4.40;;;3.97;;
1837;SDS011;918;50.796;6.772;2023-04-24T02:13:00;4.97;;;4.13;;
1837;SDS011;918;50.796;6.772;2023-04-24T02:15:26;4.13;;;3.83;;
1837;SDS011;918;50.796;6.772;2023-04-24T02:17:51;5.33;;;4.83;;
1837;SDS011;918;50.796;6.772;2023-04-24T02:20:16;4.43;;;4.10;;
1837;SDS011;918;50.796;6.772;2023-04-24T02:22:42;5.13;;;4.80;;
1837;SDS011;918;50.796;6.772;2023-04-24T02:25:07;4.87;;;4.50;;
1837;SDS011;918;50.796;6.772;2023-04-24T02:27:33;5.03;;;4.63;;
1837;SDS011;918;50.796;6.772;2023-04-24T02:29:58;7.00;;;6.30;;
1837;SDS011;918;50.796;6.772;2023-04-24T02:32:23;6.37;;;5.80;;
1837;SDS011;918;50.796;6.772;2023-04-24T02:34:49;6.03;;;5.53;;
1837;SDS011;918;50.796;6.772;2023-04-24T02:37:15;5.90;;;5.40;;
1837;SDS011;918;50.796;6.772;2023-04-24T02:39:40;5.53;;;5.13;;
1837;SDS011;918;50.796;6.772;2023-04-24T02:42:05;5.70;;;5.03;;
1837;SDS011;918;50.796;6.772;2023-04-24T02:44:30;6.33;;;5.73;;
1837;SDS011;918;50.796;6.772;2023-04-24T02:46:56;6.50;;;5.90;;
1837;SDS011;918;50.796;6.772;2023-04-24T02:49:21;6.77;;;6.27;;
1837;SDS011;918;50.796;6.772;2023-04-24T02:51:46;7.07;;;6.47;;
1837;SDS011;918;50.796;6.772;2023-04-24T02:54:11;6.53;;;6.03;;
1837;SDS011;918;50.796;6.772;2023-04-24T02:56:37;7.40;;;6.70;;
1837;SDS011;918;50.796;6.772;2023-04-24T02:59:02;7.70;;;6.60;;
1837;SDS011;918;50.796;6.772;2023-04-24T03:01:27;7.13;;;6.53;;
1837;SDS011;918;50.796;6.772;2023-04-24T03:03:53;7.20;;;6.60;;
1837;SDS011;918;50.796;6.772;2023-04-24T03:06:18;8.03;;;7.43;;
1837;SDS011;918;50.796;6.772;2023-04-24T03:08:43;8.33;;;6.90;;
1837;SDS011;918;50.796;6.772;2023-04-24T03:11:08;7.00;;;6.40;;
1837;SDS011;918;50.796;6.772;2023-04-24T03:13:34;7.23;;;6.63;;
1837;SDS011;918;50.796;6.772;2023-04-24T03:15:59;7.00;;;6.40;;
1837;SDS011;918;50.796;6.772;2023-04-24T03:18:25;7.80;;;7.10;;
1837;SDS011;918;50.796;6.772;2023-04-24T03:20:50;7.33;;;6.73;;
1837;SDS011;918;50.796;6.772;2023-04-24T03:23:15;8.03;;;7.23;;
1837;SDS011;918;50.796;6.772;2023-04-24T03:25:40;7.80;;;7.10;;
1837;SDS011;918;50.796;6.772;2023-04-24T03:28:07;7.00;;;6.30;;
1837;SDS011;918;50.796;6.772;2023-04-24T03:30:33;7.17;;;6.57;;
1837;SDS011;918;50.796;6.772;2023-04-24T03:32:58;8.03;;;7.30;;
1837;SDS011;918;50.796;6.772;2023-04-24T03:35:23;7.47;;;6.77;;
1837;SDS011;918;50.796;6.772;2023-04-24T03:37:48;7.07;;;6.47;;
1837;SDS011;918;50.796;6.772;2023-04-24T03:40:13;6.90;;;6.40;;
1837;SDS011;918;50.796;6.772;2023-04-24T03:42:39;7.40;;;6.70;;
1837;SDS011;918;50.796;6.772;2023-04-24T03:45:04;9.20;;;7.30;;
1837;SDS011;918;50.796;6.772;2023-04-24T03:47:30;7.63;;;7.03;;
1837;SDS011;918;50.796;6.772;2023-04-24T03:49:55;7.40;;;6.80;;
1837;SDS011;918;50.796;6.772;2023-04-24T03:52:21;8.00;;;7.30;;
1837;SDS011;918;50.796;6.772;2023-04-24T03:54:46;7.10;;;6.40;;
1837;SDS011;918;50.796;6.772;2023-04-24T03:57:11;6.87;;;6.27;;
1837;SDS011;918;50.796;6.772;2023-04-24T03:59:37;6.70;;;6.20;;
1837;SDS011;918;50.796;6.772;2023-04-24T04:02:02;7.00;;;6.50;;
1837;SDS011;918;50.796;6.772;2023-04-24T04:04:27;7.23;;;6.70;;
1837;SDS011;918;50.796;6.772;2023-04-24T04:06:52;6.97;;;6.37;;
1837;SDS011;918;50.796;6.772;2023-04-24T04:09:18;6.97;;;6.37;;
1837;SDS011;918;50.796;6.772;2023-04-24T04:11:43;7.40;;;6.67;;
1837;SDS011;918;50.796;6.772;2023-04-24T04:14:08;7.60;;;7.00;;
1837;SDS011;918;50.796;6.772;2023-04-24T04:16:34;6.90;;;6.30;;
1837;SDS011;918;50.796;6.772;2023-04-24T04:19:01;7.70;;;7.00;;
1837;SDS011;918;50.796;6.772;2023-04-24T04:21:27;6.50;;;5.90;;
1837;SDS011;918;50.796;6.772;2023-04-24T04:23:53;7.03;;;6.27;;
1837;SDS011;918;50.796;6.772;2023-04-24T04:26:18;7.97;;;7.27;;
1837;SDS011;918;50.796;6.772;2023-04-24T04:28:44;7.30;;;6.70;;
1837;SDS011;918;50.796;6.772;2023-04-24T04:31:09;7.33;;;6.67;;
1837;SDS011;918;50.796;6.772;2023-04-24T04:33:34;6.77;;;6.07;;
1837;SDS011;918;50.796;6.772;2023-04-24T04:36:01;8.10;;;7.40;;
1837;SDS011;918;50.796;6.772;2023-04-24T04:38:26;7.17;;;6.50;;
1837;SDS011;918;50.796;6.772;2023-04-24T04:40:55;7.40;;;6.70;;
1837;SDS011;918;50.796;6.772;2023-04-24T04:43:21;6.57;;;5.97;;
1837;SDS011;918;50.796;6.772;2023-04-24T04:45:49;7.40;;;6.80;;
1837;SDS011;918;50.796;6.772;2023-04-24T04:48:16;7.00;;;6.40;;
1837;SDS011;918;50.796;6.772;2023-04-24T04:50:42;7.47;;;6.80;;
1837;SDS011;918;50.796;6.772;2023-04-24T04:53:08;7.53;;;6.73;;
1837;SDS011;918;50.796;6.772;2023-04-24T04:55:33;6.00;;;5.40;;
1837;SDS011;918;50.796;6.772;2023-04-24T04:57:58;6.60;;;6.20;;
1837;SDS011;918;50.796;6.772;2023-04-24T05:00:25;6.10;;;5.60;;
1837;SDS011;918;50.796;6.772;2023-04-24T05:02:50;6.50;;;6.00;;
1837;SDS011;918;50.796;6.772;2023-04-24T05:05:16;6.63;;;6.03;;
1837;SDS011;918;50.796;6.772;2023-04-24T05:07:42;6.20;;;5.67;;
1837;SDS011;918;50.796;6.772;2023-04-24T05:10:08;7.30;;;6.57;;
1837;SDS011;918;50.796;6.772;2023-04-24T05:12:33;7.03;;;6.33;;
1837;SDS011;918;50.796;6.772;2023-04-24T05:14:59;7.93;;;7.27;;
1837;SDS011;918;50.796;6.772;2023-04-24T05:17:24;6.73;;;6.00;;
1837;SDS011;918;50.796;6.772;2023-04-24T05:19:50;6.70;;;6.03;;
1837;SDS011;918;50.796;6.772;2023-04-24T05:22:16;7.83;;;7.10;;
1837;SDS011;918;50.796;6.772;2023-04-24T05:24:43;7.90;;;7.23;;
1837;SDS011;918;50.796;6.772;2023-04-24T05:27:08;7.63;;;7.03;;
1837;SDS011;918;50.796;6.772;2023-04-24T05:29:33;7.47;;;6.87;;
1837;SDS011;918;50.796;6.772;2023-04-24T05:31:59;7.57;;;6.97;;
1837;SDS011;918;50.796;6.772;2023-04-24T05:34:25;7.17;;;6.57;;
1837;SDS011;918;50.796;6.772;2023-04-24T05:36:50;6.63;;;6.03;;
1837;SDS011;918;50.796;6.772;2023-04-24T05:39:16;7.30;;;6.60;;
1837;SDS011;918;50.796;6.772;2023-04-24T05:41:41;6.70;;;6.13;;
1837;SDS011;918;50.796;6.772;2023-04-24T05:44:07;6.73;;;6.23;;
1837;SDS011;918;50.796;6.772;2023-04-24T05:46:32;8.70;;;7.80;;
1837;SDS011;918;50.796;6.772;2023-04-24T05:48:57;7.13;;;6.53;;
1837;SDS011;918;50.796;6.772;2023-04-24T05:51:23;6.47;;;5.87;;
1837;SDS011;918;50.796;6.772;2023-04-24T05:53:48;7.33;;;5.73;;
1837;SDS011;918;50.796;6.772;2023-04-24T05:56:13;5.33;;;4.93;;
1837;SDS011;918;50.796;6.772;2023-04-24T05:58:39;5.00;;;4.60;;
1837;SDS011;918;50.796;6.772;2023-04-24T06:01:05;4.67;;;4.13;;
1837;SDS011;918;50.796;6.772;2023-04-24T06:03:31;4.47;;;4.17;;
1837;SDS011;918;50.796;6.772;2023-04-24T06:05:56;4.00;;;3.70;;
1837;SDS011;918;50.796;6.772;2023-04-24T06:08:22;3.93;;;3.63;;
1837;SDS011;918;50.796;6.772;2023-04-24T06:10:47;4.10;;;3.80;;
1837;SDS011;918;50.796;6.772;2023-04-24T06:13:12;7.00;;;4.10;;
1837;SDS011;918;50.796;6.772;2023-04-24T06:15:37;3.90;;;3.60;;
1837;SDS011;918;50.796;6.772;2023-04-24T06:18:03;2.70;;;2.50;;
1837;SDS011;918;50.796;6.772;2023-04-24T06:20:28;4.00;;;3.70;;
1837;SDS011;918;50.796;6.772;2023-04-24T06:22:54;2.50;;;2.30;;
1837;SDS011;918;50.796;6.772;2023-04-24T06:25:19;2.20;;;2.10;;
1837;SDS011;918;50.796;6.772;2023-04-24T06:27:44;2.70;;;2.50;;
1837;SDS011;918;50.796;6.772;2023-04-24T06:30:10;2.93;;;2.67;;
1837;SDS011;918;50.796;6.772;2023-04-24T06:32:35;2.80;;;2.60;;
1837;SDS011;918;50.796;6.772;2023-04-24T06:35:01;2.23;;;2.13;;
1837;SDS011;918;50.796;6.772;2023-04-24T06:37:26;2.23;;;2.13;;
1837;SDS011;918;50.796;6.772;2023-04-24T06:39:51;1.90;;;1.80;;
1837;SDS011;918;50.796;6.772;2023-04-24T06:42:16;1.90;;;1.80;;
1837;SDS011;918;50.796;6.772;2023-04-24T06:44:42;1.67;;;1.53;;
1837;SDS011;918;50.796;6.772;2023-04-24T06:47:08;2.67;;;2.47;;
1837;SDS011;918;50.796;6.772;2023-04-24T06:49:37;2.17;;;1.97;;
1837;SDS011;918;50.796;6.772;2023-04-24T06:52:02;1.20;;;1.10;;
1837;SDS011;918;50.796;6.772;2023-04-24T06:54:28;2.50;;;1.80;;
1837;SDS011;918;50.796;6.772;2023-04-24T06:56:54;1.93;;;1.70;;
1837;SDS011;918;50.796;6.772;2023-04-24T06:59:20;1.87;;;1.77;;
1837;SDS011;918;50.796;6.772;2023-04-24T07:01:45;1.67;;;1.57;;
1837;SDS011;918;50.796;6.772;2023-04-24T07:04:10;1.90;;;1.47;;
1837;SDS011;918;50.796;6.772;2023-04-24T07:06:37;1.30;;;1.30;;
1837;SDS011;918;50.796;6.772;2023-04-24T07:09:04;1.10;;;1.10;;
1837;SDS011;918;50.796;6.772;2023-04-24T07:11:29;1.37;;;1.27;;
1837;SDS011;918;50.796;6.772;2023-04-24T07:13:55;1.87;;;1.50;;
1837;SDS011;918;50.796;6.772;2023-04-24T07:16:20;1.60;;;1.30;;
1837;SDS011;918;50.796;6.772;2023-04-24T07:18:45;1.40;;;1.40;;
1837;SDS011;918;50.796;6.772;2023-04-24T07:21:11;1.60;;;1.50;;
1837;SDS011;918;50.796;6.772;2023-04-24T07:23:36;1.40;;;1.20;;
1837;SDS011;918;50.796;6.772;2023-04-24T07:26:01;1.50;;;1.40;;
1837;SDS011;918;50.796;6.772;2023-04-24T07:28:27;1.43;;;1.33;;
1837;SDS011;918;50.796;6.772;2023-04-24T07:30:55;1.60;;;1.50;;
1837;SDS011;918;50.796;6.772;2023-04-24T07:33:21;1.50;;;1.40;;
1837;SDS011;918;50.796;6.772;2023-04-24T07:35:46;2.63;;;1.50;;
1837;SDS011;918;50.796;6.772;2023-04-24T07:38:12;1.23;;;1.10;;
1837;SDS011;918;50.796;6.772;2023-04-24T07:40:37;1.60;;;1.50;;
1837;SDS011;918;50.796;6.772;2023-04-24T07:43:02;1.97;;;1.27;;
1837;SDS011;918;50.796;6.772;2023-04-24T07:45:28;1.80;;;1.70;;
1837;SDS011;918;50.796;6.772;2023-04-24T07:47:53;1.87;;;1.60;;
1837;SDS011;918;50.796;6.772;2023-04-24T07:50:18;1.67;;;1.47;;
1837;SDS011;918;50.796;6.772;2023-04-24T07:52:44;1.70;;;1.60;;
1837;SDS011;918;50.796;6.772;2023-04-24T07:55:09;1.77;;;1.67;;
1837;SDS011;918;50.796;6.772;2023-04-24T07:57:34;1.90;;;1.80;;
1837;SDS011;918;50.796;6.772;2023-04-24T08:00:00;2.00;;;1.77;;
1837;SDS011;918;50.796;6.772;2023-04-24T08:02:25;1.93;;;1.83;;
1837;SDS011;918;50.796;6.772;2023-04-24T08:04:54;1.80;;;1.67;;
1837;SDS011;918;50.796;6.772;2023-04-24T08:07:19;1.93;;;1.83;;
1837;SDS011;918;50.796;6.772;2023-04-24T08:09:44;2.00;;;1.90;;
1837;SDS011;918;50.796;6.772;2023-04-24T08:12:10;2.90;;;1.97;;
1837;SDS011;918;50.796;6.772;2023-04-24T08:14:35;2.30;;;2.17;;
1837;SDS011;918;50.796;6.772;2023-04-24T08:17:00;3.33;;;1.87;;
1837;SDS011;918;50.796;6.772;2023-04-24T08:19:26;2.47;;;2.10;;
1837;SDS011;918;50.796;6.772;2023-04-24T08:21:51;3.93;;;2.23;;
1837;SDS011;918;50.796;6.772;2023-04-24T08:24:16;3.90;;;2.63;;
1837;SDS011;918;50.796;6.772;2023-04-24T08:26:42;2.37;;;2.17;;
1837;SDS011;918;50.796;6.772;2023-04-24T08:29:07;2.63;;;2.43;;
1837;SDS011;918;50.796;6.772;2023-04-24T08:31:32;3.40;;;2.10;;
1837;SDS011;918;50.796;6.772;2023-04-24T08:33:58;3.50;;;2.40;;
1837;SDS011;918;50.796;6.772;2023-04-24T08:36:24;4.07;;;3.20;;
1837;SDS011;918;50.796;6.772;2023-04-24T08:38:50;3.20;;;2.90;;
1837;SDS011;918;50.796;6.772;2023-04-24T08:41:16;3.70;;;3.40;;
1837;SDS011;918;50.796;6.772;2023-04-24T08:43:43;4.10;;;3.70;;
1837;SDS011;918;50.796;6.772;2023-04-24T08:46:08;4.47;;;4.17;;
1837;SDS011;918;50.796;6.772;2023-04-24T08:48:35;4.27;;;3.90;;
1837;SDS011;918;50.796;6.772;2023-04-24T08:51:00;4.20;;;3.90;;
1837;SDS011;918;50.796;6.772;2023-04-24T08:53:27;4.87;;;4.47;;
1837;SDS011;918;50.796;6.772;2023-04-24T08:55:53;4.93;;;4.53;;
1837;SDS011;918;50.796;6.772;2023-04-24T08:58:20;5.77;;;4.60;;
1837;SDS011;918;50.796;6.772;2023-04-24T09:00:45;4.10;;;3.80;;
1837;SDS011;918;50.796;6.772;2023-04-24T09:03:15;5.00;;;4.60;;
1837;SDS011;918;50.796;6.772;2023-04-24T09:05:42;4.90;;;4.50;;
1837;SDS011;918;50.796;6.772;2023-04-24T09:08:10;5.20;;;4.70;;
1837;SDS011;918;50.796;6.772;2023-04-24T09:10:36;5.40;;;4.90;;
1837;SDS011;918;50.796;6.772;2023-04-24T09:13:01;5.03;;;4.57;;
1837;SDS011;918;50.796;6.772;2023-04-24T09:15:27;4.87;;;4.47;;
1837;SDS011;918;50.796;6.772;2023-04-24T09:17:52;5.80;;;4.40;;
1837;SDS011;918;50.796;6.772;2023-04-24T09:20:18;4.53;;;4.23;;
1837;SDS011;918;50.796;6.772;2023-04-24T09:22:43;5.20;;;4.30;;
1837;SDS011;918;50.796;6.772;2023-04-24T09:25:10;6.20;;;5.03;;
1837;SDS011;918;50.796;6.772;2023-04-24T09:27:37;5.20;;;4.33;;
1837;SDS011;918;50.796;6.772;2023-04-24T09:30:06;4.70;;;4.40;;
1837;SDS011;918;50.796;6.772;2023-04-24T09:32:33;5.30;;;4.90;;
1837;SDS011;918;50.796;6.772;2023-04-24T09:35:31;5.00;;;4.60;;
1837;SDS011;918;50.796;6.772;2023-04-24T09:37:50;5.23;;;4.73;;
1837;SDS011;918;50.796;6.772;2023-04-24T09:40:19;5.10;;;4.70;;
1837;SDS011;918;50.796;6.772;2023-04-24T09:42:52;4.87;;;4.47;;
1837;SDS011;918;50.796;6.772;2023-04-24T09:45:18;5.10;;;4.40;;
1837;SDS011;918;50.796;6.772;2023-04-24T09:47:44;5.43;;;4.73;;
1837;SDS011;918;50.796;6.772;2023-04-24T09:52:39;5.97;;;4.77;;
1837;SDS011;918;50.796;6.772;2023-04-24T09:55:13;5.07;;;4.67;;
1837;SDS011;918;50.796;6.772;2023-04-24T10:00:24;5.83;;;4.70;;
1837;SDS011;918;50.796;6.772;2023-04-24T10:02:54;5.50;;;5.00;;
1837;SDS011;918;50.796;6.772;2023-04-24T10:05:24;4.97;;;4.53;;
1837;SDS011;918;50.796;6.772;2023-04-24T10:07:55;5.00;;;4.60;;
1837;SDS011;918;50.796;6.772;2023-04-24T10:10:22;4.93;;;4.47;;
1837;SDS011;918;50.796;6.772;2023-04-24T10:12:47;4.70;;;4.40;;
1837;SDS011;918;50.796;6.772;2023-04-24T10:15:13;4.80;;;4.30;;
1837;SDS011;918;50.796;6.772;2023-04-24T10:17:38;4.23;;;3.90;;
1837;SDS011;918;50.796;6.772;2023-04-24T10:20:04;4.20;;;3.90;;
1837;SDS011;918;50.796;6.772;2023-04-24T10:22:31;4.23;;;3.83;;
1837;SDS011;918;50.796;6.772;2023-04-24T10:24:57;5.13;;;4.67;;
1837;SDS011;918;50.796;6.772;2023-04-24T10:27:23;6.03;;;4.80;;
1837;SDS011;918;50.796;6.772;2023-04-24T10:29:51;6.67;;;5.00;;
1837;SDS011;918;50.796;6.772;2023-04-24T10:32:18;5.50;;;4.97;;
1837;SDS011;918;50.796;6.772;2023-04-24T10:34:43;4.87;;;4.57;;
1837;SDS011;918;50.796;6.772;2023-04-24T10:37:08;5.97;;;5.30;;
1837;SDS011;918;50.796;6.772;2023-04-24T10:39:34;5.80;;;5.27;;
1837;SDS011;918;50.796;6.772;2023-04-24T10:42:00;5.70;;;5.20;;
1837;SDS011;918;50.796;6.772;2023-04-24T10:44:25;6.57;;;5.80;;
1837;SDS011;918;50.796;6.772;2023-04-24T10:47:01;6.90;;;6.30;;
1837;SDS011;918;50.796;6.772;2023-04-24T10:49:29;7.60;;;6.90;;
1837;SDS011;918;50.796;6.772;2023-04-24T10:51:59;8.33;;;7.43;;
1837;SDS011;918;50.796;6.772;2023-04-24T10:54:35;8.87;;;7.97;;
1837;SDS011;918;50.796;6.772;2023-04-24T10:59:42;8.90;;;8.00;;
1837;SDS011;918;50.796;6.772;2023-04-24T11:02:08;7.43;;;6.73;;
1837;SDS011;918;50.796;6.772;2023-04-24T11:04:34;6.50;;;5.90;;
1837;SDS011;918;50.796;6.772;2023-04-24T11:07:02;9.90;;;7.30;;
1837;SDS011;918;50.796;6.772;2023-04-24T11:09:30;5.93;;;5.40;;
1837;SDS011;918;50.796;6.772;2023-04-24T11:12:06;6.03;;;5.57;;
1837;SDS011;918;50.796;6.772;2023-04-24T11:14:59;6.20;;;5.20;;
1837;SDS011;918;50.796;6.772;2023-04-24T11:17:29;4.57;;;4.27;;
1837;SDS011;918;50.796;6.772;2023-04-24T11:20:00;6.10;;;5.03;;
1837;SDS011;918;50.796;6.772;2023-04-24T11:22:27;7.90;;;7.20;;
1837;SDS011;918;50.796;6.772;2023-04-24T11:24:54;6.83;;;4.90;;
1837;SDS011;918;50.796;6.772;2023-04-24T11:27:21;5.73;;;5.00;;
1837;SDS011;918;50.796;6.772;2023-04-24T11:32:33;8.13;;;5.33;;
1837;SDS011;918;50.796;6.772;2023-04-24T11:34:59;5.80;;;3.60;;
1837;SDS011;918;50.796;6.772;2023-04-24T11:37:27;6.40;;;4.23;;
1837;SDS011;918;50.796;6.772;2023-04-24T11:39:54;4.83;;;4.37;;
1837;SDS011;918;50.796;6.772;2023-04-24T11:42:21;6.10;;;4.43;;
1837;SDS011;918;50.796;6.772;2023-04-24T11:44:47;6.83;;;4.47;;
1837;SDS011;918;50.796;6.772;2023-04-24T11:47:12;13.83;;;6.43;;
1837;SDS011;918;50.796;6.772;2023-04-24T11:49:38;5.70;;;4.43;;
1837;SDS011;918;50.796;6.772;2023-04-24T11:52:03;7.97;;;5.40;;
1837;SDS011;918;50.796;6.772;2023-04-24T11:54:29;6.97;;;5.80;;
1837;SDS011;918;50.796;6.772;2023-04-24T11:56:55;7.47;;;6.30;;
1837;SDS011;918;50.796;6.772;2023-04-24T11:59:21;6.50;;;5.67;;
1837;SDS011;918;50.796;6.772;2023-04-24T12:01:46;8.53;;;6.80;;
1837;SDS011;918;50.796;6.772;2023-04-24T12:04:13;9.30;;;7.70;;
1837;SDS011;918;50.796;6.772;2023-04-24T12:06:39;8.17;;;7.37;;
1837;SDS011;918;50.796;6.772;2023-04-24T12:09:04;8.93;;;7.60;;
1837;SDS011;918;50.796;6.772;2023-04-24T12:11:30;7.50;;;6.80;;
1837;SDS011;918;50.796;6.772;2023-04-24T12:13:55;7.70;;;6.70;;
1837;SDS011;918;50.796;6.772;2023-04-24T12:16:21;7.57;;;6.50;;
1837;SDS011;918;50.796;6.772;2023-04-24T12:18:46;8.00;;;7.10;;
1837;SDS011;918;50.796;6.772;2023-04-24T12:21:21;7.07;;;6.30;;
1837;SDS011;918;50.796;6.772;2023-04-24T12:23:47;8.20;;;7.37;;
1837;SDS011;918;50.796;6.772;2023-04-24T12:26:17;6.57;;;6.07;;
1837;SDS011;918;50.796;6.772;2023-04-24T12:28:45;7.77;;;6.80;;
1837;SDS011;918;50.796;6.772;2023-04-24T12:31:13;7.10;;;6.30;;
1837;SDS011;918;50.796;6.772;2023-04-24T12:33:38;6.07;;;5.50;;
1837;SDS011;918;50.796;6.772;2023-04-24T12:36:03;6.70;;;6.10;;
1837;SDS011;918;50.796;6.772;2023-04-24T12:38:30;9.00;;;7.30;;
1837;SDS011;918;50.796;6.772;2023-04-24T12:43:51;7.77;;;6.20;;
1837;SDS011;918;50.796;6.772;2023-04-24T12:46:16;5.63;;;5.20;;
1837;SDS011;918;50.796;6.772;2023-04-24T12:48:42;6.30;;;5.40;;
1837;SDS011;918;50.796;6.772;2023-04-24T12:51:07;7.23;;;6.50;;
1837;SDS011;918;50.796;6.772;2023-04-24T12:53:32;7.73;;;6.10;;
1837;SDS011;918;50.796;6.772;2023-04-24T12:55:57;8.13;;;6.80;;
1837;SDS011;918;50.796;6.772;2023-04-24T12:58:23;6.90;;;6.20;;
1837;SDS011;918;50.796;6.772;2023-04-24T13:00:48;5.87;;;5.37;;
1837;SDS011;918;50.796;6.772;2023-04-24T13:03:14;6.20;;;5.37;;
1837;SDS011;918;50.796;6.772;2023-04-24T13:05:40;6.37;;;5.77;;
1837;SDS011;918;50.796;6.772;2023-04-24T13:08:07;6.50;;;5.70;;
1837;SDS011;918;50.796;6.772;2023-04-24T13:10:32;10.23;;;6.70;;
1837;SDS011;918;50.796;6.772;2023-04-24T13:12:57;8.03;;;6.70;;
1837;SDS011;918;50.796;6.772;2023-04-24T13:15:23;7.80;;;6.77;;
1837;SDS011;918;50.796;6.772;2023-04-24T13:17:48;6.60;;;5.87;;
1837;SDS011;918;50.796;6.772;2023-04-24T13:20:14;11.53;;;7.27;;
1837;SDS011;918;50.796;6.772;2023-04-24T13:22:39;7.40;;;6.60;;
1837;SDS011;918;50.796;6.772;2023-04-24T13:25:05;10.30;;;7.80;;
1837;SDS011;918;50.796;6.772;2023-04-24T13:27:31;8.33;;;7.53;;
1837;SDS011;918;50.796;6.772;2023-04-24T13:29:56;7.93;;;7.13;;
1837;SDS011;918;50.796;6.772;2023-04-24T13:32:21;6.00;;;5.40;;
1837;SDS011;918;50.796;6.772;2023-04-24T13:34:47;8.10;;;6.10;;
1837;SDS011;918;50.796;6.772;2023-04-24T13:37:12;7.13;;;6.50;;
1837;SDS011;918;50.796;6.772;2023-04-24T13:39:37;7.13;;;6.53;;
1837;SDS011;918;50.796;6.772;2023-04-24T13:42:03;6.73;;;6.20;;
1837;SDS011;918;50.796;6.772;2023-04-24T13:44:28;8.00;;;6.37;;
1837;SDS011;918;50.796;6.772;2023-04-24T13:46:54;7.53;;;6.83;;
1837;SDS011;918;50.796;6.772;2023-04-24T13:49:21;6.50;;;5.90;;
1837;SDS011;918;50.796;6.772;2023-04-24T13:51:49;7.37;;;6.80;;
1837;SDS011;918;50.796;6.772;2023-04-24T13:54:14;7.83;;;7.10;;
1837;SDS011;918;50.796;6.772;2023-04-24T13:56:40;10.77;;;7.47;;
1837;SDS011;918;50.796;6.772;2023-04-24T13:59:05;7.90;;;6.60;;
1837;SDS011;918;50.796;6.772;2023-04-24T14:01:30;8.03;;;7.23;;
1837;SDS011;918;50.796;6.772;2023-04-24T14:03:56;9.07;;;6.67;;
1837;SDS011;918;50.796;6.772;2023-04-24T14:06:21;8.57;;;5.97;;
1837;SDS011;918;50.796;6.772;2023-04-24T14:08:47;7.83;;;7.07;;
1837;SDS011;918;50.796;6.772;2023-04-24T14:11:13;6.73;;;6.13;;
1837;SDS011;918;50.796;6.772;2023-04-24T14:13:38;8.10;;;7.30;;
1837;SDS011;918;50.796;6.772;2023-04-24T14:16:06;6.70;;;6.10;;
1837;SDS011;918;50.796;6.772;2023-04-24T14:18:31;12.37;;;10.60;;
1837;SDS011;918;50.796;6.772;2023-04-24T14:20:56;11.40;;;10.40;;
1837;SDS011;918;50.796;6.772;2023-04-24T14:23:22;9.07;;;8.23;;
1837;SDS011;918;50.796;6.772;2023-04-24T14:25:47;8.87;;;7.10;;
1837;SDS011;918;50.796;6.772;2023-04-24T14:28:15;12.57;;;11.43;;
1837;SDS011;918;50.796;6.772;2023-04-24T14:30:41;12.23;;;11.00;;
1837;SDS011;918;50.796;6.772;2023-04-24T14:33:07;13.33;;;12.00;;
1837;SDS011;918;50.796;6.772;2023-04-24T14:35:32;12.27;;;11.17;;
1837;SDS011;918;50.796;6.772;2023-04-24T14:37:59;14.50;;;13.00;;
1837;SDS011;918;50.796;6.772;2023-04-24T14:40:24;6.40;;;5.80;;
1837;SDS011;918;50.796;6.772;2023-04-24T14:42:49;7.40;;;6.80;;
1837;SDS011;918;50.796;6.772;2023-04-24T14:45:15;8.63;;;7.87;;
1837;SDS011;918;50.796;6.772;2023-04-24T14:47:40;10.83;;;9.73;;
1837;SDS011;918;50.796;6.772;2023-04-24T14:50:06;7.93;;;7.23;;
1837;SDS011;918;50.796;6.772;2023-04-24T14:52:33;8.47;;;7.57;;
1837;SDS011;918;50.796;6.772;2023-04-24T14:54:58;10.30;;;7.80;;
1837;SDS011;918;50.796;6.772;2023-04-24T14:57:23;10.10;;;9.17;;
1837;SDS011;918;50.796;6.772;2023-04-24T14:59:49;8.47;;;7.77;;
1837;SDS011;918;50.796;6.772;2023-04-24T15:02:14;13.73;;;12.50;;
1837;SDS011;918;50.796;6.772;2023-04-24T15:04:39;10.40;;;9.20;;
1837;SDS011;918;50.796;6.772;2023-04-24T15:07:05;7.70;;;6.90;;
1837;SDS011;918;50.796;6.772;2023-04-24T15:09:30;9.77;;;8.80;;
1837;SDS011;918;50.796;6.772;2023-04-24T15:11:57;7.80;;;7.17;;
1837;SDS011;918;50.796;6.772;2023-04-24T15:14:22;10.70;;;9.50;;
1837;SDS011;918;50.796;6.772;2023-04-24T15:16:48;10.37;;;9.00;;
1837;SDS011;918;50.796;6.772;2023-04-24T15:19:13;13.27;;;8.27;;
1837;SDS011;918;50.796;6.772;2023-04-24T15:21:38;9.20;;;8.30;;
1837;SDS011;918;50.796;6.772;2023-04-24T15:24:06;7.73;;;7.00;;
1837;SDS011;918;50.796;6.772;2023-04-24T15:26:31;8.57;;;6.80;;
1837;SDS011;918;50.796;6.772;2023-04-24T15:28:57;8.60;;;7.70;;
1837;SDS011;918;50.796;6.772;2023-04-24T15:31:22;8.67;;;7.13;;
1837;SDS011;918;50.796;6.772;2023-04-24T15:33:48;10.47;;;7.47;;
1837;SDS011;918;50.796;6.772;2023-04-24T15:36:14;9.37;;;6.60;;